Tiempo atmosférico en la estación meteorológica de Xàtiva, València/Valencia (88 m.)



Fecha
DESCASC
Temp. máxima en grados centígrados (hora)
DESCASC
Temp. mínima en grados centígrados (hora)
DESCASC
Temp. media en grados centígrados
DESCASC
Racha de viento máxima en m/sg (hora)
DESCASC
Velocidad máxima media en intervalos de 10 minutos(hora)
DESCASC
Precipitaciones diarias en mm
DESCASC
Precipitaciones de 00:00 a 06:00 en mm
DESCASC
Precipitaciones de 06:00 a 12:00 en mm
DESCASC
Precipitaciones de 12:00 a 18:00 en mm
DESCASC
Precipitaciones de 18:00 a 24:00 en mm
DESCASC
17-09-2020 31.8 (16:40) 22.6 (06:20) 27.2 6.11 (18:10) 3.89 (18:30) -- -- -- 0 0
15-09-2020 33.2 (16:20) 21.2 (08:20) 27.2 6.94 (14:10) 4.44 (18:10) -- -- -- -- --
14-09-2020 32 (16:10) 18.4 (07:50) 25.2 8.89 (17:00) 5 (17:30) -- -- -- -- --
13-09-2020 33.5 (17:50) 19 (00:00) 26.3 10.28 (15:50) 5 (16:00) -- -- -- -- --
12-09-2020 33.6 (15:10) 20.7 (07:00) 27.1 7.22 (16:00) 4.72 (18:10) -- -- -- -- --
11-09-2020 35.5 (15:50) 17 (00:00) 26.3 9.17 (17:40) 6.39 (17:40) -- -- -- -- --
10-09-2020 31.3 (17:20) 16.8 (00:00) 24 6.39 (18:00) 3.89 (18:10) 0 0 0 0 0
09-09-2020 29.1 (17:10) 16 (04:40) 22.6 8.06 (19:20) 5.28 (19:20) 0 0 0 0 0
08-09-2020 26.7 (15:30) 16.9 (00:00) 21.8 8.06 (17:10) 5 (17:10) 0 0 0 0 0
07-09-2020 25.2 (14:10) 18.7 (23:59) 22 10 (10:50) 6.39 (10:50) 0 0 0 0 0
06-09-2020 32.2 (16:00) 18 (00:00) 25.1 6.94 (17:20) 4.44 (18:50) 0 0 0 0 0
05-09-2020 32.4 (16:20) 17.5 (00:00) 25 13.33 (22:30) 4.72 (17:40) 0 0 0 0 0
04-09-2020 31.3 (15:40) 17.1 (00:00) 24.2 9.17 (17:20) 5.28 (17:20) 0 0 0 0 0
03-09-2020 32.3 (16:20) 18.3 (00:00) 25.3 7.78 (18:10) 5.28 (18:10) 0 0 0 0 0
02-09-2020 30.4 (17:40) 18.8 (00:00) 24.6 8.33 (16:40) 5 (18:00) 0 0 0 0 0
01-09-2020 28.7 (15:50) 16.5 (00:00) 22.6 7.22 (18:40) 4.44 (18:30) 0 0 0 0 0
31-08-2020 30.7 (15:40) 14.6 (00:00) 22.7 11.39 (16:10) 5.56 (16:00) 0 0 0 0 0
30-08-2020 28.7 (16:30) 14 (00:00) 21.4 10 (17:20) 6.11 (17:20) 0 0 0 0 0
29-08-2020 28.9 (13:20) 19.5 (00:00) 24.2 12.5 (15:10) 8.33 (17:00) 0 0 0 0 0
28-08-2020 36.2 (14:50) 21.5 (00:00) 28.9 7.5 (15:20) 4.72 (15:40) 0 0 0 0 0
27-08-2020 36.3 (15:50) 21.9 (00:00) 29.1 8.89 (16:50) 5.83 (16:50) 0 0 0 0 0
26-08-2020 36.6 (16:00) 21.6 (00:00) 29.1 7.78 (15:50) 4.72 (17:40) 0 0 0 0 0
25-08-2020 40.6 (18:30) 22.1 (00:00) 31.3 9.17 (19:40) 5.28 (19:50) 0 0 0 0 0
24-08-2020 35.1 (16:00) 23.7 (07:50) 29.4 8.89 (15:10) 5.28 (15:00) 0 0 0 0 0
23-08-2020 33.1 (15:30) 23.8 (00:00) 28.4 10 (14:00) 6.39 (14:30) 0 0 0 0 0
22-08-2020 35.1 (15:10) 20.3 (00:00) 27.7 10.28 (13:50) 5 (18:00) 0 0 0 0 0
21-08-2020 38.8 (16:50) 23 (08:00) 30.9 8.06 (18:10) 5.28 (18:00) 0 0 0 0 0

Gráficas

Temp. máximas Temp. mínimas Temp. medias Precipitaciones Rachas de viento máximas Velocidades máximas media en intervalos de 10 minutos

Datos horarios

Fecha y hora oficial Temperatura (ºC) Velocidad del viento (km/h) Dirección del viento Racha (km/h) Dirección de racha Precipitación (mm) Presión (hPa) Tendencia (hPa) Humedad (%)
2020-09-19 23:00:00 22.3 7 Sudoeste 15 Sudoeste -- 1006.1 2.1 52
2020-09-19 22:00:00 24 9 Sudoeste 19 Sudoeste -- 1005.3 1.9 45
2020-09-19 21:00:00 25.2 6 Sudoeste 30 Noroeste -- 1004.5 1.4 40
2020-09-19 20:00:00 26.9 19 Noroeste 32 Noroeste -- 1004 0.7 35
2020-09-19 19:00:00 28.8 16 Oeste 32 Oeste -- 1003.4 -0.2 29
2020-09-19 18:00:00 29.7 10 Oeste 40 Oeste -- 1003.1 -1.2 25
2020-09-19 17:00:00 31.6 16 Oeste 35 Oeste -- 1003.3 -1.6 23
2020-09-19 16:00:00 31.6 13 Oeste 31 Oeste -- 1003.6 -1.7 24
2020-09-19 15:00:00 30.3 13 Sudoeste 39 Oeste -- 1004.3 -1.5 28
2020-09-19 14:00:00 30.2 16 Oeste 35 Noroeste -- 1004.9 -1 30
2020-09-19 13:00:00 28.9 17 Oeste 35 Noroeste 0 1005.3 -0.4 33
2020-09-19 12:00:00 27.3 16 Oeste 40 Oeste 0 1005.8 0.3 36
2020-09-19 11:00:00 25.1 8 Sudoeste 17 Oeste 0 1005.9 -- 50
2020-09-19 10:00:00 22 8 Sudoeste 19 Sudoeste 0 1005.7 -- 69
2020-09-19 09:00:00 19.9 13 Sudoeste 25 Sudoeste 0 1005.5 -- 79
2020-09-19 08:00:00 16.7 6 Oeste 13 Oeste 0 1005 -- 93
2020-09-19 07:00:00 16.9 5 Sudoeste 10 Noroeste 0 1004.8 -- 93
2020-09-19 06:00:00 17.5 3 Sur 9 Noroeste 0 1004.5 -- 92
2020-09-19 05:00:00 17.5 4 Noroeste 12 Sudoeste 0 1004.3 -- 92
2020-09-19 04:00:00 18.2 7 Oeste 11 Oeste 0 1004.6 -- 91
2020-09-19 03:00:00 18.8 3 Sudoeste 9 Oeste 0 1004.6 -- 89
2020-09-19 02:00:00 19.1 4 Sudoeste 8 Noroeste 0 1005.3 -- 88
2020-09-19 01:00:00 19.3 6 Oeste 10 Oeste 0 1006 -- 87
2020-09-19 00:00:00 19.9 0 Calma 8 Sudeste 0 1006.2 -- 84
2020-09-18 23:00:00 20.9 7 Sudeste 17 Este 0 1006.3 -- 78
2020-09-18 22:00:00 22.7 6 Sudoeste 11 Oeste 0 1005.7 -- 68
2020-09-18 21:00:00 23.1 7 Noroeste 12 Noroeste 0 1004.2 -- 71
2020-09-18 20:00:00 25 3 Sudeste 14 Nordeste 0 1002.9 -- 65
2020-09-18 19:00:00 25.4 8 Nordeste 14 Nordeste 0 1002.8 -- 65
2020-09-18 18:00:00 25.5 5 Nordeste 10 Nordeste 0 1002.8 -- 66
2020-09-18 17:00:00 25.2 8 Nordeste 19 Oeste 0 1003.2 -- 70
2020-09-18 16:00:00 22 9 Oeste 32 Noroeste 0 1003.8 -- 84
2020-09-18 15:00:00 22.2 12 Este 23 Este 0 1003.2 -- 84
2020-09-18 14:00:00 21.4 11 Nordeste 19 Este 0 1005.4 -- 84
2020-09-18 13:00:00 22.2 3 Norte 6 Sudoeste 0 1006.5 -- 73
2020-09-18 12:00:00 21.6 3 Noroeste 21 Noroeste 0 1006.1 -- 80
2020-09-18 11:00:00 20.9 5 Sudeste 16 Sur 0 1005.4 -- 77
2020-09-18 10:00:00 19.8 5 Sudoeste 19 Sur 0 1006 -- 86
2020-09-18 09:00:00 19.2 3 Noroeste 20 Sudoeste 0 1006.5 -- 88
2020-09-18 08:00:00 20.2 9 Sudoeste 30 Sudoeste 0 1006.8 -- 76
2020-09-18 07:00:00 23.1 10 Sudoeste 28 Sudoeste 0 1006 -- 53
2020-09-18 06:00:00 23.4 11 Sudoeste 19 Oeste 0 1005.4 -- 69
2020-09-18 05:00:00 22.7 8 Oeste 13 Oeste 0 1004.5 -- 74
2020-09-18 04:00:00 23 8 Oeste 17 Sudoeste 0 1004.4 -- 75
2020-09-18 03:00:00 23.3 7 Sudoeste 13 Sudoeste 0 1004.5 -- 82
2020-09-18 02:00:00 24.1 5 Oeste 10 Oeste 0 1004.8 -- 85
2020-09-18 01:00:00 23.9 5 Oeste 8 Oeste 0 1004.8 -- 85
2020-09-18 00:00:00 24.2 4 Noroeste 7 Noroeste 0 1004.7 -- 84
2020-09-17 23:00:00 24.5 4 Oeste 11 Noroeste 0 1004.7 -- 81
2020-09-17 22:00:00 24.8 4 Noroeste 17 Oeste 0 1004.1 -- 77
2020-09-17 21:00:00 25.9 5 Oeste 13 Oeste 0 1003.1 -- 67
2020-09-17 20:00:00 27.9 4 Norte 13 Norte 0 1002.8 -- 54
2020-09-17 19:00:00 28.9 8 Norte 22 Norte 0 1002.7 -- 47
2020-09-17 18:00:00 31.3 11 Norte 20 Nordeste 0 1002.9 -- 38
2020-09-17 17:00:00 31.6 9 Nordeste 19 Este 0 1003.4 -- 39
2020-09-17 16:00:00 30.3 6 Este 13 Norte 0 1004.1 -- 43
2020-09-17 15:00:00 28.3 7 Nordeste 15 Norte 0 1004.8 -- 54
2020-09-17 14:00:00 27.1 6 Nordeste 12 Nordeste 0 1005.8 -- 65
2020-09-17 13:00:00 26 4 Norte 9 Oeste 0 1006.3 -- 66
2020-09-17 12:00:00 25.4 3 Sudoeste 11 Noroeste 0 1006.5 -- 69
2020-09-17 11:00:00 24 3 Oeste 10 Oeste 0 1006.3 -- 73
2020-09-17 10:00:00 23.1 4 Noroeste 12 Sudoeste 0 1006 -- 79
2020-09-17 09:00:00 22.7 2 Oeste 9 Oeste 0 1006.4 -- 77
2020-09-17 08:00:00 22.7 2 Sudoeste 8 Oeste 0 1005.9 -- 77
2020-09-17 07:00:00 22.6 4 Oeste 10 Sudoeste 0 1005.9 -- 77
2020-09-17 06:00:00 22.9 3 Oeste 18 Sudoeste 0 1006.1 -- 76
2020-09-17 05:00:00 23.1 8 Oeste 16 Sudoeste 0 1006.8 -- 74
2020-09-17 04:00:00 23.2 6 Oeste 11 Oeste 0 1006.7 -- 78
2020-09-17 03:00:00 23.4 5 Oeste 12 Oeste 0 1006.9 -- 81
2020-09-17 02:00:00 23.6 5 Sudoeste 11 Oeste 0 1007 -- 82
2020-09-17 01:00:00 23.6 8 Oeste 12 Oeste 0 1007.2 -- 84
2020-09-17 00:00:00 24 6 Oeste 10 Oeste 0 1007.1 -- 81
2020-09-16 23:00:00 24.4 6 Oeste 14 Oeste 0 1006.8 -- 78
2020-09-16 22:00:00 24.9 3 Noroeste 12 Noroeste 0 1006.3 -- 75
2020-09-16 21:00:00 26.3 4 Nordeste 18 Oeste 0 1005.5 -- 66
2020-09-16 20:00:00 28.5 11 Oeste 20 Oeste 0 1005.1 -- 55
2020-09-16 19:00:00 30.5 6 Norte 21 Nordeste 0 1004.7 -- 43
2020-09-16 18:00:00 32.1 11 Norte 25 Norte 0 1004.6 -- 36
2020-09-16 17:00:00 33.1 13 Nordeste 23 Norte 0 1005.1 -- 37
2020-09-16 16:00:00 33.4 12 Norte 25 Norte 0 1005.7 -- 39
2020-09-16 15:00:00 33.4 8 Nordeste 19 Norte 0 1006.5 -- 29
2020-09-16 14:00:00 32.2 6 Nordeste 19 Nordeste 0 1007.4 -- 29
2020-09-16 13:00:00 30.6 5 Nordeste 14 Nordeste 0 1008.1 -- 34
2020-09-16 12:00:00 29 5 Norte 11 Este 0 1008.7 -- 41
2020-09-16 11:00:00 26.4 4 Noroeste 12 Oeste 0 1009 -- 56
2020-09-16 10:00:00 23.6 9 Oeste 17 Oeste 0 1009.3 -- 65
2020-09-16 09:00:00 21.3 4 Oeste 19 Oeste 0 1009 -- 76
2020-09-16 08:00:00 21 11 Oeste 20 Sudoeste 0 1008.9 -- 77
2020-09-16 07:00:00 21.7 10 Sudoeste 17 Oeste 0 1008.6 -- 75
2020-09-16 06:00:00 22.4 8 Sudoeste 17 Sudoeste 0 1008.6 -- 74
2020-09-16 05:00:00 23.3 6 Oeste 12 Oeste 0 1009 -- 74
2020-09-16 04:00:00 23.8 4 Oeste 9 Oeste 0 1009.1 -- 75
2020-09-16 03:00:00 24 5 Oeste 9 Oeste 0 1009.4 -- 79
2020-09-16 02:00:00 24.2 3 Norte 7 Noroeste 0 1009.6 -- 82
2020-09-16 01:00:00 23.9 3 Oeste 9 Oeste 0 1009.8 -- 82
2020-09-16 00:00:00 23.6 6 Oeste 12 Oeste 0 1009.8 -- 81
2020-09-15 23:00:00 24.3 4 Oeste 12 Oeste 0 1009.5 -- 76
2020-09-15 22:00:00 25 6 Oeste 15 Oeste 0 1009.1 -- 73
2020-09-15 21:00:00 26.6 6 Oeste 15 Norte 0 1008.5 -- 65
2020-09-15 20:00:00 28.8 10 Norte 18 Nordeste 0 1007.5 -- 51
2020-09-15 19:00:00 30.3 12 Nordeste 24 Norte 0 1007.6 -- 47
2020-09-15 18:00:00 32.1 13 Nordeste 21 Nordeste 0 1007.6 -- 41
2020-09-15 17:00:00 32.2 10 Nordeste 22 Nordeste 0 1008 -- 40
2020-09-15 16:00:00 33.1 5 Norte 18 Nordeste 0 1008.7 -- 29
2020-09-15 15:00:00 31.5 9 Nordeste 25 Nordeste 0 1009.5 -- 32
2020-09-15 14:00:00 30.5 12 Este 21 Este 0 1010.4 -- 43
2020-09-15 13:00:00 28.9 5 Este 15 Nordeste 0 1011.2 -- 50
2020-09-15 12:00:00 27.3 3 Nordeste 10 Sudoeste 0 1011.9 -- 57
2020-09-15 11:00:00 26.1 3 Noroeste 11 Oeste 0 1011.8 -- 63
2020-09-15 10:00:00 23.4 9 Oeste 17 Oeste 0 1011.3 -- 72
2020-09-15 09:00:00 21.7 6 Sudoeste 15 Sudoeste 0 1011.2 -- 83
2020-09-15 08:00:00 21.5 6 Oeste 11 Oeste 0 1010.8 -- 88
2020-09-15 07:00:00 21.8 4 Oeste 14 Este 0 1010.5 -- 89
2020-09-15 06:00:00 22 6 Oeste 14 Oeste 0 1011 -- 87
2020-09-15 05:00:00 21.8 5 Oeste 10 Oeste 0 1010.6 -- 88
2020-09-15 04:00:00 22.1 6 Oeste 13 Oeste 0 1010.9 -- 89
2020-09-15 03:00:00 22.6 3 Oeste 12 Noroeste 0 1011 -- 86
2020-09-15 02:00:00 23.1 8 Este 12 Este 0 1011.6 -- 82
2020-09-15 01:00:00 23.5 6 Oeste 10 Oeste 0 1012.7 -- 78
2020-09-15 00:00:00 23.5 4 Oeste 14 Oeste 0 1012.1 -- 78
2020-09-14 23:00:00 23.8 2 Sudoeste 10 Oeste 0 1011.6 -- 78
2020-09-14 22:00:00 23.9 6 Oeste 13 Oeste 0 1011.4 -- 75
2020-09-14 21:00:00 25 9 Noroeste 18 Noroeste 0 1010.8 -- 67
2020-09-14 20:00:00 26.9 8 Nordeste 20 Nordeste 0 1009.8 -- 55
2020-09-14 19:00:00 28.6 13 Nordeste 27 Norte 0 1009.6 -- 49
2020-09-14 18:00:00 30.5 15 Nordeste 28 Nordeste 0 1009.8 -- 45
2020-09-14 17:00:00 31.2 14 Nordeste 32 Norte 0 1010.1 -- 40
2020-09-14 16:00:00 31.8 18 Norte 28 Nordeste 0 1010.7 -- 32
2020-09-14 15:00:00 31.3 13 Nordeste 30 Norte 0 1011.3 -- 36
2020-09-14 14:00:00 29.3 12 Nordeste 19 Este 0 1012.1 -- 42
2020-09-14 13:00:00 29.4 9 Norte 15 Norte 0 1012.6 -- 43
2020-09-14 12:00:00 27.6 6 Este 11 Este 0 1013 -- 50
2020-09-14 11:00:00 25.6 3 Sudoeste 13 Sudoeste 0 1013.1 -- 56
2020-09-14 10:00:00 21.2 9 Sudoeste 18 Sudoeste 0 1013.1 -- 66
2020-09-14 09:00:00 19.2 10 Sudoeste 18 Sudoeste 0 1012.7 -- 70
2020-09-14 08:00:00 18.5 10 Sudoeste 21 Oeste 0 1012.5 -- 74
2020-09-14 07:00:00 18.7 7 Sudoeste 15 Sudoeste 0 1012.4 -- 74
2020-09-14 06:00:00 18.7 9 Sudoeste 15 Sudoeste 0 1012.4 -- 77
2020-09-14 05:00:00 19.6 9 Sudoeste 15 Sudoeste 0 1012.7 -- 71
2020-09-14 04:00:00 19.5 11 Sudoeste -- -- -- 1012.8 -- 74
2020-09-14 03:00:00 19.8 8 Oeste 17 Oeste 0 1012.9 -- 75
2020-09-14 02:00:00 20.4 8 Oeste 12 Oeste 0 1013.1 -- 77
2020-09-14 01:00:00 21.4 6 Oeste 12 Oeste 0 1013.2 -- 76
2020-09-14 00:00:00 22.4 7 Oeste 12 Sudoeste 0 1013.1 -- 77
2020-09-13 23:00:00 23.2 6 Oeste 9 Oeste 0 1012.7 -- 72
2020-09-13 22:00:00 24.4 6 Sudoeste 12 Sudoeste 0 1012.3 -- 62
2020-09-13 21:00:00 25.9 5 Oeste 12 Nordeste 0 1011.6 -- 51
2020-09-13 20:00:00 28.4 6 Nordeste 18 Este 0 1011.3 -- 40
2020-09-13 19:00:00 30.2 12 Este 21 Sudeste 0 1010.9 -- 32
2020-09-13 18:00:00 33.5 10 Sudeste 22 Este 0 1010.6 -- 26
2020-09-13 17:00:00 33.2 11 Nordeste 30 Norte 0 1010.8 -- 24
2020-09-13 16:00:00 32.6 18 Nordeste 37 Nordeste 0 1011.1 -- 26
2020-09-13 15:00:00 32.3 13 Este 26 Este 0 1011.6 -- 27
2020-09-13 14:00:00 31 12 Nordeste 22 Nordeste 0 1012.1 -- 35
2020-09-13 13:00:00 29.6 6 Nordeste 15 Norte 0 1012.7 -- 44
2020-09-13 12:00:00 28.4 4 Nordeste 10 Norte 0 1013 -- 45
2020-09-13 11:00:00 26 4 Este 12 Oeste 0 1012.8 -- 60
2020-09-13 10:00:00 22.5 8 Sudoeste 16 Sudoeste 0 1012.4 -- 65
2020-09-13 09:00:00 20 10 Sudoeste 19 Oeste 0 1012.2 -- 71
2020-09-13 08:00:00 19.1 8 Oeste 20 Sudoeste 0 1011.6 -- 77
2020-09-13 07:00:00 19.9 12 Sudoeste 23 Sudoeste 0 1011.3 -- 73
2020-09-13 06:00:00 19.9 9 Sudoeste 17 Sudoeste 0 1011 -- 75
2020-09-13 05:00:00 20.6 11 Sudoeste 17 Sudoeste 0 1011 -- 72
2020-09-13 04:00:00 21.1 8 Oeste 16 Oeste 0 1010.9 -- 74
2020-09-13 03:00:00 20.9 8 Oeste 13 Oeste 0 1011.1 -- 80
2020-09-13 02:00:00 21.4 6 Oeste 11 Oeste 0 1011.3 -- 79
2020-09-13 01:00:00 22.1 7 Oeste 12 Oeste 0 1011 -- 77
2020-09-13 00:00:00 22.6 7 Oeste 11 Oeste 0 1010.6 -- 77
2020-09-12 23:00:00 23.4 3 Oeste 12 Sudoeste 0 1010.1 -- 71
2020-09-12 22:00:00 24.9 5 Sudoeste 11 Oeste 0 1009.1 -- 63
2020-09-12 21:00:00 26.6 8 Noroeste 14 Oeste 0 1007.9 -- 53
2020-09-12 20:00:00 29.5 4 Nordeste 20 Sudeste 0 1007.1 -- 38
2020-09-12 19:00:00 31.5 13 Este 26 Nordeste 0 1006.6 -- 33
2020-09-12 18:00:00 33 14 Nordeste 26 Este 0 1006.2 -- 32
2020-09-12 17:00:00 32.9 15 Nordeste 26 Este 0 1006.2 -- 34
2020-09-12 16:00:00 32.6 16 Nordeste 26 Norte 0 1006.4 -- 41
2020-09-12 15:00:00 33 8 Nordeste 18 Nordeste 0 1006.7 -- 31
2020-09-12 14:00:00 31.1 8 Nordeste 17 Nordeste 0 1007.4 -- 37
2020-09-12 13:00:00 29.5 6 Este 14 Nordeste 0 1007.9 -- 43
2020-09-12 12:00:00 28.1 6 Norte 14 Nordeste 0 1008.2 -- 50
2020-09-12 11:00:00 26.8 3 Sudoeste 11 Oeste 0 1008.1 -- 57
2020-09-12 10:00:00 24.2 5 Oeste 12 Oeste 0 1007.7 -- 63
2020-09-12 09:00:00 21.6 6 Oeste 12 Oeste 0 1007.4 -- 70
2020-09-12 08:00:00 20.8 6 Oeste 17 Oeste 0 1006.8 -- 71
2020-09-12 07:00:00 20.7 9 Sudoeste 16 Sudoeste 0 1006.2 -- 70
2020-09-12 06:00:00 21.4 8 Oeste 15 Sudoeste 0 1006.1 -- 67
2020-09-12 05:00:00 21.6 10 Oeste 18 Oeste 0 1005.9 -- 64
2020-09-12 04:00:00 21.8 9 Oeste 15 Sudoeste 0 1005.6 -- 66
2020-09-12 03:00:00 22.2 5 Oeste 11 Oeste 0 1005.6 -- 78
2020-09-12 02:00:00 23.1 5 Sudoeste 10 Oeste 0 1005.4 -- 76
2020-09-12 01:00:00 23.5 6 Oeste 12 Oeste 0 1005.3 -- 76
2020-09-12 00:00:00 23.9 4 Norte 11 Noroeste 0 1004.9 -- 76
2020-09-11 23:00:00 24.6 4 Norte 21 Norte 0 1004.4 -- 72
2020-09-11 22:00:00 25.6 14 Norte 27 Norte 0 1003.8 -- 65
2020-09-11 21:00:00 28.2 4 Sudoeste 19 Oeste 0 1002.3 -- 41
2020-09-11 20:00:00 31.8 10 Sudeste 20 Sudeste 0 1001.5 -- 27
2020-09-11 19:00:00 32.9 9 Este 31 Sudeste 0 1001.2 -- 27
2020-09-11 18:00:00 34.1 19 Sudeste 33 Sudeste 0 1001.3 -- 24
2020-09-11 17:00:00 34.3 17 Este 31 Este 0 1001.3 -- 23
2020-09-11 16:00:00 35.4 11 Este 24 Sudeste 0 1001.8 -- 18
2020-09-11 15:00:00 34.8 8 Este 20 Este 0 1002.2 -- 21
2020-09-11 14:00:00 33.7 4 Oeste 24 Oeste 0 1003 -- 21
2020-09-11 13:00:00 32.3 7 Sudoeste 21 Nordeste 0 1003.6 -- 23
2020-09-11 12:00:00 29.3 8 Sudeste 18 Sudeste 0 1004.2 -- 35
2020-09-11 11:00:00 26.1 4 Este 10 Este 0 1004.6 -- 49
2020-09-11 10:00:00 23.1 4 Este 13 Sudoeste 0 1004.7 -- 64
2020-09-11 09:00:00 18.9 4 Oeste 9 Oeste 0 1004.8 -- 81
2020-09-11 08:00:00 17.1 6 Oeste 10 Oeste 0 1004.7 -- 88
2020-09-11 07:00:00 17.5 5 Oeste 10 Oeste 0 1004.8 -- 87
2020-09-11 06:00:00 17.6 7 Oeste 10 Oeste 0 1004.7 -- 85
2020-09-11 05:00:00 18.3 5 Sudoeste 9 Oeste 0 1005.1 -- 82
2020-09-11 04:00:00 18.6 4 Sudoeste 8 Oeste 0 1005.3 -- 83
2020-09-11 03:00:00 19.4 2 Sur 10 Oeste 0 1005.6 -- 79
2020-09-11 02:00:00 20.3 5 Oeste 9 Oeste 0 1006 -- 74
2020-09-11 01:00:00 21.5 4 Oeste 9 Sudoeste 0 1006.4 -- 67
2020-09-11 00:00:00 22.5 5 Oeste 9 Sudoeste 0 1006.3 -- 64
2020-09-10 23:00:00 22.7 7 Oeste 15 Oeste 0 1006.2 -- 63
2020-09-10 22:00:00 23.6 8 Sudoeste 14 Sudoeste 0 1005.9 -- 59
2020-09-10 21:00:00 25.3 2 Norte 15 Sudeste 0 1005.2 -- 46
2020-09-10 20:00:00 27.9 8 Sudeste 21 Sudeste 0 1004.6 -- 36
2020-09-10 19:00:00 29.6 8 Este 22 Nordeste 0 1004.4 -- 32
2020-09-10 18:00:00 30.6 13 Este 23 Nordeste 0 1004.6 -- 31
2020-09-10 17:00:00 30.2 5 Este 15 Nordeste 0 1005.3 -- 33
2020-09-10 16:00:00 30.5 6 Este 19 Nordeste 0 1006 -- 30
2020-09-10 15:00:00 29.6 9 Nordeste 19 Nordeste 0 1006.8 -- 34
2020-09-10 14:00:00 28.8 5 Norte 15 Este 0 1007.7 -- 35
2020-09-10 13:00:00 27.2 5 Este 15 Este 0 1008.5 -- 44
2020-09-10 12:00:00 25.6 6 Este 15 Este 0 1009 -- 51
2020-09-10 11:00:00 23.5 4 Oeste 9 Noroeste 0 1009.1 -- 60
2020-09-10 10:00:00 20.9 4 Oeste 10 Sudoeste 0 1008.9 -- 70
2020-09-10 09:00:00 18.3 4 Sudoeste 9 Sudoeste 0 1008.7 -- 80
2020-09-10 08:00:00 16.9 3 Sur 15 Oeste 0 1008.3 -- 86
2020-09-10 07:00:00 17.1 7 Sudoeste 13 Sudoeste 0 1008.2 -- 84
2020-09-10 06:00:00 17.2 6 Sudoeste 12 Sudoeste 0 1008.3 -- 84
2020-09-10 05:00:00 17 6 Oeste 11 Oeste 0 1008.5 -- 85
2020-09-10 04:00:00 17.6 8 Oeste 15 Sudoeste 0 1009.1 -- 83
2020-09-10 03:00:00 18 6 Oeste 14 Sudoeste 0 1009.5 -- 82
2020-09-10 02:00:00 18.4 7 Oeste 15 Sudoeste 0 1009.7 -- 82
2020-09-10 01:00:00 19 6 Oeste 11 Oeste 0 1009.9 -- 81
2020-09-10 00:00:00 19.8 6 Oeste 9 Sudoeste 0 1010 -- 78
2020-09-09 23:00:00 21.4 4 Sudoeste 7 Sudoeste 0 1009.9 -- 68
2020-09-09 22:00:00 21.5 4 Noroeste 8 Norte 0 1009.7 -- 66
2020-09-09 21:00:00 22.6 5 Norte 21 Este 0 1008.9 -- 58
2020-09-09 20:00:00 24.4 15 Este 29 Nordeste 0 1008.7 -- 51
2020-09-09 19:00:00 26.6 13 Este 27 Nordeste 0 1008.5 -- 41
2020-09-09 18:00:00 26.9 12 Nordeste 26 Nordeste 0 1008.3 -- 46
2020-09-09 17:00:00 28.5 7 Nordeste 22 Nordeste 0 1008.6 -- 38
2020-09-09 16:00:00 27.6 10 Nordeste 23 Norte 0 1008.7 -- 42
2020-09-09 15:00:00 28.1 10 Este 18 Este 0 1009.5 -- 38
2020-09-09 14:00:00 27.3 3 Este 19 Nordeste 0 1010.1 -- 41
2020-09-09 13:00:00 26 8 Este 19 Este 0 1011 -- 49
2020-09-09 12:00:00 24.7 10 Este 19 Este 0 1011.5 -- 55
2020-09-09 11:00:00 23.8 4 Este 10 Este 0 1011.5 -- 51
2020-09-09 10:00:00 20.8 4 Oeste 14 Oeste 0 1011.1 -- 62
2020-09-09 09:00:00 17.7 6 Sudoeste 13 Oeste 0 1011 -- 82
2020-09-09 08:00:00 16.5 5 Oeste 10 Oeste 0 1010.6 -- 86
2020-09-09 07:00:00 16.8 3 Noroeste 8 Oeste 0 1010.4 -- 88
2020-09-09 06:00:00 16.7 6 Sudoeste 14 Sudoeste 0 1010.6 -- 82
2020-09-09 05:00:00 16.1 4 Oeste 17 Oeste 0 1010.7 -- 84
2020-09-09 04:00:00 16.7 7 Oeste 21 Norte 0 1010.9 -- 79
2020-09-09 03:00:00 18 12 Sudoeste 19 Oeste 0 1011 -- 56
2020-09-09 02:00:00 18.1 10 Sudoeste 19 Oeste 0 1011.3 -- 55
2020-09-09 01:00:00 18 8 Oeste 18 Oeste 0 1011.6 -- 59
2020-09-09 00:00:00 18.5 8 Oeste 14 Oeste 0 1011.9 -- 63
2020-09-08 23:00:00 20.5 6 Sudoeste 8 Sudoeste 0 1011.9 -- 53
2020-09-08 22:00:00 21.5 2 Norte 8 Norte 0 1012 -- 47
2020-09-08 21:00:00 22.6 3 Norte 14 Este 0 1011.3 -- 41
2020-09-08 20:00:00 24 9 Este 27 Este 0 1011.1 -- 33
2020-09-08 19:00:00 25.7 10 Este 24 Nordeste 0 1011 -- 31
2020-09-08 18:00:00 26.2 15 Nordeste 29 Nordeste 0 1011.1 -- 30
2020-09-08 17:00:00 26.5 15 Este 28 Este 0 1011 -- 32
2020-09-08 16:00:00 25.7 12 Este 24 Nordeste 0 1011.3 -- 38
2020-09-08 15:00:00 26.2 9 Nordeste 19 Este 0 1011.5 -- 41
2020-09-08 14:00:00 26.3 6 Noroeste 17 Sudeste 0 1012.1 -- 44
2020-09-08 13:00:00 24.3 5 Sudeste 11 Sudeste 0 1012.6 -- 49
2020-09-08 12:00:00 22.3 3 Sudoeste 12 Noroeste 0 1013.2 -- 68
2020-09-08 11:00:00 21.6 3 Nordeste 8 Nordeste 0 1013.2 -- 72
2020-09-08 10:00:00 19.1 3 Sudoeste 10 Noroeste 0 1012.9 -- 87
2020-09-08 09:00:00 17.8 7 Noroeste 16 Oeste 0 1012.7 -- 95
2020-09-08 08:00:00 17.6 4 Sudoeste 12 Norte 0 1012.1 -- 95
2020-09-08 07:00:00 17.3 9 Norte 23 Norte 0 1011.7 -- 95
2020-09-08 06:00:00 17.5 7 Norte 16 Norte 0 1011.5 -- 93
2020-09-08 05:00:00 16.9 8 Sudoeste 14 Este 0 1010.9 -- 93
2020-09-08 04:00:00 16.9 2 Oeste 11 Oeste 0 1010.7 -- 90
2020-09-08 03:00:00 17.2 3 Oeste 9 Oeste 0 1010.7 -- 87
2020-09-08 02:00:00 17.7 6 Oeste 9 Oeste 0 1010.7 -- 87
2020-09-08 01:00:00 18.4 3 Oeste 11 Oeste 0 1010.9 -- 85
2020-09-08 00:00:00 18.7 8 Oeste 13 Oeste 0 1010.8 -- 82
2020-09-07 23:00:00 19.2 7 Oeste 10 Oeste 0 1010.6 -- 78
2020-09-07 22:00:00 20 2 Norte 9 Nordeste 0 1009.9 -- 74
2020-09-07 21:00:00 21.1 9 Nordeste 24 Este 0 1009 -- 70
2020-09-07 20:00:00 22.1 14 Nordeste 26 Este 0 1008.5 -- 65
2020-09-07 19:00:00 23.3 14 Este 26 Este 0 1008 -- 56
2020-09-07 18:00:00 24.3 13 Nordeste 22 Nordeste 0 1007.8 -- 51
2020-09-07 17:00:00 23.5 10 Nordeste 27 Nordeste 0 1007.5 -- 57
2020-09-07 16:00:00 22.7 18 Nordeste 31 Norte 0 1008.1 -- 58
2020-09-07 15:00:00 23 18 Norte 28 Nordeste 0 1008.1 -- 51
2020-09-07 14:00:00 25 11 Norte 29 Nordeste 0 1007.8 -- 47
2020-09-07 13:00:00 22.1 17 Nordeste 36 Norte 0 1008.2 -- 51
2020-09-07 12:00:00 22.5 17 Nordeste 29 Nordeste 0 1007.9 -- 59
2020-09-07 11:00:00 22.5 20 Nordeste 36 Nordeste 0 1007.1 -- 69
2020-09-07 10:00:00 22.6 12 Norte 19 Norte 0 1006 -- 77
2020-09-07 09:00:00 21.7 4 Sudoeste 8 Oeste 0 1005.6 -- 81
2020-09-07 08:00:00 20.7 3 Oeste 9 Oeste 0 1005 -- 86
2020-09-07 07:00:00 20.3 0 Calma 4 Oeste 0 1004.6 -- 89
2020-09-07 06:00:00 20.8 3 Norte 6 Oeste 0 1004.3 -- 86
2020-09-07 05:00:00 22.2 3 Oeste 8 Oeste 0 1004.5 -- 81
2020-09-07 04:00:00 22 5 Oeste 9 Oeste 0 1004.8 -- 81
2020-09-07 03:00:00 22.1 5 Oeste 9 Oeste 0 1005.4 -- 80
2020-09-07 02:00:00 22.6 5 Oeste 9 Sudoeste 0 1005.5 -- 77
2020-09-07 01:00:00 23.4 5 Sudoeste 11 Sudoeste 0 1005.5 -- 75
2020-09-07 00:00:00 23.3 6 Oeste 14 Oeste 0 1005.3 -- 76
2020-09-06 23:00:00 23.6 6 Oeste 12 Oeste 0 1004.9 -- 74
2020-09-06 22:00:00 24.5 4 Noroeste 13 Nordeste 0 1004.6 -- 67
2020-09-06 21:00:00 25.4 7 Nordeste 17 Nordeste 0 1003.9 -- 60
2020-09-06 20:00:00 27.5 11 Nordeste 22 Nordeste 0 1003.5 -- 53
2020-09-06 19:00:00 29 16 Nordeste 23 Nordeste 0 1003.5 -- 47
2020-09-06 18:00:00 31 12 Nordeste 25 Norte 0 1003.7 -- 42
2020-09-06 17:00:00 31.5 13 Norte 23 Norte 0 1004.1 -- 36
2020-09-06 16:00:00 31.5 12 Nordeste 22 Nordeste 0 1004.6 -- 37
2020-09-06 15:00:00 31.1 8 Nordeste 23 Nordeste 0 1005.4 -- 36
2020-09-06 14:00:00 30.2 10 Nordeste 23 Nordeste 0 1006 -- 39
2020-09-06 13:00:00 28.8 8 Nordeste 19 Este 0 1006.8 -- 43
2020-09-06 12:00:00 27.6 4 Noroeste 13 Sudeste 0 1007.4 -- 49
2020-09-06 11:00:00 25.8 3 Sur 13 Oeste 0 1007.5 -- 54
2020-09-06 10:00:00 22.9 5 Oeste 15 Sudoeste 0 1007.3 -- 67
2020-09-06 09:00:00 19.7 6 Oeste 12 Oeste 0 1007.3 -- 81
2020-09-06 08:00:00 18 9 Oeste 14 Oeste 0 1007.3 -- 87
2020-09-06 07:00:00 18.4 5 Oeste 11 Oeste 0 1007 -- 88
2020-09-06 06:00:00 19.1 7 Oeste 9 Oeste 0 1007 -- 87
2020-09-06 05:00:00 20.2 8 Sudoeste 12 Oeste 0 1007 -- 85
2020-09-06 04:00:00 20 7 Oeste 12 Oeste 0 1007.5 -- 87
2020-09-06 03:00:00 19.6 6 Oeste 10 Oeste 0 1007.8 -- 88
2020-09-06 02:00:00 20.2 6 Sudoeste 10 Oeste 0 1008.2 -- 86
2020-09-06 01:00:00 21 6 Oeste 9 Oeste 0 1008.4 -- 85
2020-09-06 00:00:00 22 5 Sudoeste 10 Oeste 0 1008.4 -- 82
2020-09-05 23:00:00 22.2 3 Nordeste 48 Este 0 1008.2 -- 80
2020-09-05 22:00:00 23.1 9 Nordeste 15 Nordeste 0 1007.9 -- 75
2020-09-05 21:00:00 24.5 9 Norte 18 Nordeste 0 1007.3 -- 65
2020-09-05 20:00:00 27.2 14 Nordeste 22 Nordeste 0 1006.7 -- 52
2020-09-05 19:00:00 29.8 13 Nordeste 23 Este 0 1006.5 -- 31
2020-09-05 18:00:00 30.9 13 Este 25 Nordeste 0 1006.5 -- 28
2020-09-05 17:00:00 31.6 12 Nordeste 27 Nordeste 0 1006.9 -- 31
2020-09-05 16:00:00 31.8 8 Nordeste 22 Nordeste 0 1007.3 -- 32
2020-09-05 15:00:00 31 10 Nordeste 27 Nordeste 0 1008 -- 38
2020-09-05 14:00:00 29.9 9 Nordeste 21 Nordeste 0 1008.5 -- 36
2020-09-05 13:00:00 29.6 8 Sudeste 19 Sudeste 0 1009.4 -- 36
2020-09-05 12:00:00 27.1 4 Norte 12 Nordeste 0 1010 -- 51
2020-09-05 11:00:00 25.4 3 Sudeste 12 Oeste 0 1010.4 -- 57
2020-09-05 10:00:00 22.3 8 Oeste 15 Oeste 0 1010.5 -- 68
2020-09-05 09:00:00 19.2 9 Sudoeste 16 Oeste 0 1010.6 -- 78
2020-09-05 08:00:00 17.7 8 Oeste 14 Sudoeste 0 1010.4 -- 85
2020-09-05 07:00:00 18 6 Sudoeste 12 Sudoeste 0 1010.2 -- 84
2020-09-05 06:00:00 18.3 6 Sudoeste 12 Oeste 0 1010.4 -- 82
2020-09-05 05:00:00 18.6 8 Oeste 16 Oeste 0 1010.5 -- 82
2020-09-05 04:00:00 19.1 9 Oeste 13 Oeste 0 1010.9 -- 81
2020-09-05 03:00:00 19.5 7 Oeste 12 Oeste 0 1011.4 -- 81
2020-09-05 02:00:00 20.3 5 Oeste 12 Oeste 0 1011.6 -- 80
2020-09-05 01:00:00 21.6 7 Oeste 12 Sudoeste 0 1012 -- 78
2020-09-05 00:00:00 22 7 Oeste 12 Oeste 0 1012 -- 77
2020-09-04 23:00:00 22.8 7 Sudoeste 10 Sudoeste 0 1011.7 -- 72
2020-09-04 22:00:00 23.8 4 Oeste 10 Nordeste 0 1011.3 -- 61
2020-09-04 21:00:00 25.3 6 Nordeste 18 Sudeste 0 1010.8 -- 55
2020-09-04 20:00:00 28 13 Sudeste 24 Nordeste 0 1010.5 -- 44
2020-09-04 19:00:00 28.8 14 Nordeste 27 Nordeste 0 1010.6 -- 41
2020-09-04 18:00:00 29.7 18 Este 33 Este 0 1010.7 -- 44
2020-09-04 17:00:00 30.4 13 Este 27 Sudeste 0 1011.1 -- 42
2020-09-04 16:00:00 30.9 9 Nordeste 24 Nordeste 0 1011.7 -- 39
2020-09-04 15:00:00 30.3 13 Nordeste 22 Nordeste 0 1012.6 -- 38
2020-09-04 14:00:00 29.9 9 Este 19 Norte 0 1013.2 -- 39
2020-09-04 13:00:00 28.9 6 Nordeste 17 Norte 0 1013.9 -- 41
2020-09-04 12:00:00 27.1 5 Este 11 Nordeste 0 1014.5 -- 46
2020-09-04 11:00:00 25.4 3 Norte 12 Sudoeste 0 1014.7 -- 57
2020-09-04 10:00:00 22 7 Sudoeste 14 Oeste 0 1014.3 -- 62
2020-09-04 09:00:00 19.1 6 Oeste 13 Oeste 0 1014.1 -- 74
2020-09-04 08:00:00 17.1 8 Oeste 13 Sudoeste 0 1013.6 -- 83
2020-09-04 07:00:00 17.1 7 Oeste 11 Oeste 0 1013.2 -- 83
2020-09-04 06:00:00 17.9 6 Oeste 14 Oeste 0 1012.8 -- 80
2020-09-04 05:00:00 18 7 Oeste 11 Oeste 0 1012.8 -- 79
2020-09-04 04:00:00 19.1 4 Oeste 13 Oeste 0 1012.8 -- 75
2020-09-04 03:00:00 19.6 5 Oeste 11 Oeste 0 1013.1 -- 73
2020-09-04 02:00:00 20.4 6 Oeste 10 Oeste 0 1013.5 -- 70
2020-09-04 01:00:00 21.4 3 Sudoeste 9 Sudoeste 0 1013.4 -- 66
2020-09-04 00:00:00 22.7 3 Sudoeste 7 Sudoeste 0 1013.1 -- 60
2020-09-03 23:00:00 23.8 4 Sudoeste 11 Oeste 0 1012.6 -- 54
2020-09-03 22:00:00 24.6 5 Oeste 13 Este 0 1011.8 -- 46
2020-09-03 21:00:00 26.7 9 Este 20 Este 0 1010.8 -- 38
2020-09-03 20:00:00 29 13 Este 20 Este 0 1010.2 -- 33
2020-09-03 19:00:00 30 13 Este 28 Este 0 1009.9 -- 34
2020-09-03 18:00:00 31 12 Nordeste 28 Este 0 1009.6 -- 33
2020-09-03 17:00:00 31.5 14 Nordeste 24 Nordeste 0 1009.8 -- 35
2020-09-03 16:00:00 31.7 9 Norte 25 Norte 0 1009.9 -- 35
2020-09-03 15:00:00 31.3 12 Nordeste 27 Nordeste 0 1010.4 -- 35
2020-09-03 14:00:00 30.6 6 Nordeste 19 Nordeste 0 1010.8 -- 31
2020-09-03 13:00:00 28.7 4 Sudeste 15 Este 0 1011.2 -- 42
2020-09-03 12:00:00 27.2 5 Norte 15 Nordeste 0 1011.7 -- 49
2020-09-03 11:00:00 25.7 4 Este 10 Oeste 0 1011.6 -- 56
2020-09-03 10:00:00 22.5 7 Sudoeste 17 Sudoeste 0 1011.1 -- 65
2020-09-03 09:00:00 20.3 8 Oeste 15 Sudoeste 0 1010.6 -- 73
2020-09-03 08:00:00 19 6 Oeste 12 Sudoeste 0 1010.3 -- 78
2020-09-03 07:00:00 18.4 6 Oeste 14 Oeste 0 1009.7 -- 81
2020-09-03 06:00:00 18.9 7 Oeste 17 Sudoeste 0 1009.4 -- 78
2020-09-03 05:00:00 19 7 Oeste 14 Oeste 0 1009.1 -- 78
2020-09-03 04:00:00 19.6 9 Oeste 14 Oeste 0 1009.1 -- 76
2020-09-03 03:00:00 20 7 Oeste 14 Oeste 0 1009.2 -- 74
2020-09-03 02:00:00 20.5 6 Oeste 11 Oeste 0 1009.3 -- 74
2020-09-03 01:00:00 21.5 6 Oeste 8 Oeste 0 1009 -- 77
2020-09-03 00:00:00 22.3 5 Oeste 11 Oeste 0 1008.5 -- 74
2020-09-02 23:00:00 23 7 Oeste 13 Sudoeste 0 1007.8 -- 71
2020-09-02 22:00:00 24.3 7 Oeste 10 Oeste 0 1007 -- 60
2020-09-02 21:00:00 26.4 4 Este 14 Sudeste 0 1005.9 -- 53
2020-09-02 20:00:00 27.8 9 Este 20 Este 0 1005.1 -- 46
2020-09-02 19:00:00 28.9 14 Este 24 Este 0 1004.6 -- 42
2020-09-02 18:00:00 30.4 18 Sudeste 30 Sudeste 0 1004.5 -- 37
2020-09-02 17:00:00 29.7 15 Este 30 Nordeste 0 1004.4 -- 39
2020-09-02 16:00:00 30.2 9 Norte 28 Norte 0 1004.5 -- 38
2020-09-02 15:00:00 29.8 15 Norte 28 Nordeste 0 1005 -- 39
2020-09-02 14:00:00 28.7 11 Nordeste 21 Este 0 1005.5 -- 40
2020-09-02 13:00:00 27.9 9 Nordeste 21 Nordeste 0 1005.8 -- 44
2020-09-02 12:00:00 26 9 Este 17 Nordeste 0 1006.3 -- 54
2020-09-02 11:00:00 23.6 4 Nordeste 9 Nordeste 0 1006.2 -- 64
2020-09-02 10:00:00 22.8 3 Oeste 13 Oeste 0 1005.5 -- 63
2020-09-02 09:00:00 19.9 6 Oeste 12 Sudoeste 0 1004.8 -- 77
2020-09-02 08:00:00 18.9 0 Calma 8 Sudoeste 0 1004.5 -- 84
2020-09-02 07:00:00 19.6 3 Sudoeste 9 Oeste 0 1003.8 -- 78
2020-09-02 06:00:00 19.5 5 Oeste 13 Sudoeste 0 1003.3 -- 79
2020-09-02 05:00:00 20 6 Oeste 10 Oeste 0 1003.3 -- 77
2020-09-02 04:00:00 20.3 6 Oeste 11 Oeste 0 1003.2 -- 76
2020-09-02 03:00:00 20.8 6 Oeste 9 Oeste 0 1003.1 -- 76
2020-09-02 02:00:00 21 5 Oeste 8 Sudoeste 0 1003 -- 75
2020-09-02 01:00:00 21.7 4 Sudoeste 7 Sudoeste 0 1002.9 -- 71
2020-09-02 00:00:00 21.9 5 Sudoeste 10 Oeste 0 1002.8 -- 70
2020-09-01 23:00:00 22.5 2 Este 9 Noroeste 0 1002.5 -- 66
2020-09-01 22:00:00 23.2 4 Nordeste 8 Este 0 1001.7 -- 62
2020-09-01 21:00:00 24.1 4 Nordeste 15 Norte 0 1001 -- 59
2020-09-01 20:00:00 26.2 9 Norte 23 Norte 0 1000.3 -- 52
2020-09-01 19:00:00 27.2 14 Norte 26 Norte 0 1000.1 -- 50
2020-09-01 18:00:00 27.9 8 Norte 17 Norte 0 999.9 -- 44
2020-09-01 17:00:00 28.4 8 Nordeste 14 Norte 0 1000.5 -- 42
2020-09-01 16:00:00 28.3 10 Nordeste 17 Nordeste 0 1001.2 -- 40
2020-09-01 15:00:00 27.7 6 Nordeste 16 Este 0 1002.1 -- 44
2020-09-01 14:00:00 25.6 10 Nordeste 16 Nordeste 0 1003 -- 50
2020-09-01 13:00:00 26.2 6 Nordeste 11 Norte 0 1003.5 -- 43
2020-09-01 12:00:00 25.4 6 Norte 12 Noroeste 0 1003.8 -- 46
2020-09-01 11:00:00 23.6 3 Nordeste 7 Este 0 1004 -- 52
2020-09-01 10:00:00 21.8 4 Nordeste 7 Nordeste 0 1004.3 -- 61
2020-09-01 09:00:00 19 4 Oeste 10 Oeste 0 1004.3 -- 71
2020-09-01 08:00:00 17.1 9 Oeste 19 Oeste 0 1004.2 -- 78
2020-09-01 07:00:00 17 9 Oeste 15 Oeste 0 1004 -- 78
2020-09-01 06:00:00 17.2 6 Oeste 9 Oeste 0 1004.3 -- 77
2020-09-01 05:00:00 18.1 4 Oeste 13 Oeste 0 1004.8 -- 73
2020-09-01 04:00:00 18.9 8 Oeste 14 Sudoeste 0 1005.4 -- 68
2020-09-01 03:00:00 19.3 6 Oeste 14 Oeste 0 1006 -- 65
2020-09-01 02:00:00 20.3 7 Oeste 15 Sudoeste 0 1006.4 -- 62
2020-09-01 01:00:00 22.1 5 Sudeste 9 Sudeste 0 1006.4 -- 59
2020-09-01 00:00:00 21.7 4 Sudeste 10 Oeste 0 1006.3 -- 61
2020-08-31 23:00:00 22.5 6 Sudoeste 10 Oeste 0 1005.9 -- 57
2020-08-31 22:00:00 23.7 4 Este 9 Norte 0 1005.3 -- 51
2020-08-31 21:00:00 24.9 5 Nordeste 16 Nordeste 0 1004.6 -- 47
2020-08-31 20:00:00 26.7 13 Este 22 Sudeste 0 1004.4 -- 38
2020-08-31 19:00:00 27.7 14 Este 26 Sudeste 0 1004.4 -- 35
2020-08-31 18:00:00 29.6 16 Este 34 Este 0 1004.4 -- 29
2020-08-31 17:00:00 30.1 19 Este 41 Este 0 1005 -- 26
2020-08-31 16:00:00 30.3 20 Este 36 Este 0 1005.6 -- 26
2020-08-31 15:00:00 30 6 Este 17 Nordeste 0 1006.6 -- 20
2020-08-31 14:00:00 28.7 7 Nordeste 17 Nordeste 0 1007.4 -- 24
2020-08-31 13:00:00 27.1 6 Nordeste 17 Este 0 1008.4 -- 31
2020-08-31 12:00:00 25.5 5 Nordeste 15 Norte 0 1009.2 -- 36
2020-08-31 11:00:00 23.6 3 Este 9 Sudoeste 0 1009.4 -- 40
2020-08-31 10:00:00 20 5 Sudoeste 14 Oeste 0 1009.2 -- 55
2020-08-31 09:00:00 17.1 8 Oeste 14 Oeste 0 1008.8 -- 65
2020-08-31 08:00:00 14.7 7 Sudoeste 17 Oeste 0 1008.5 -- 73
2020-08-31 07:00:00 14.9 10 Sudoeste 16 Sudoeste 0 1007.7 -- 70
2020-08-31 06:00:00 14.7 6 Sudoeste 10 Oeste 0 1007.3 -- 73
2020-08-31 05:00:00 15.6 6 Sudoeste 14 Sudoeste 0 1007.4 -- 67
2020-08-31 04:00:00 15.9 9 Sudoeste 13 Sudoeste 0 1007.6 -- 67
2020-08-31 03:00:00 16.4 3 Oeste 12 Oeste 0 1007.5 -- 66
2020-08-31 02:00:00 16.9 8 Oeste 12 Oeste 0 1007.6 -- 65
2020-08-31 01:00:00 17.9 8 Oeste 12 Oeste 0 1007.4 -- 60
2020-08-31 00:00:00 18.9 6 Oeste 10 Oeste 0 1006.6 -- 55
2020-08-30 23:00:00 19.5 6 Sudoeste 8 Oeste 0 1005.7 -- 52
2020-08-30 22:00:00 20.1 5 Norte 9 Nordeste 0 1004.5 -- 49
2020-08-30 21:00:00 22 7 Norte 27 Sudeste 0 1003.1 -- 42
2020-08-30 20:00:00 24.9 15 Sudeste 28 Sudeste 0 1002.4 -- 30
2020-08-30 19:00:00 26.6 14 Este 33 Este 0 1001.7 -- 28
2020-08-30 18:00:00 27.1 18 Nordeste 36 Nordeste 0 1001.5 -- 27
2020-08-30 17:00:00 28.1 18 Nordeste 34 Este 0 1001.2 -- 26
2020-08-30 16:00:00 28.4 13 Nordeste 22 Este 0 1001.2 -- 23
2020-08-30 15:00:00 27.5 8 Nordeste 23 Nordeste 0 1002.1 -- 24
2020-08-30 14:00:00 26 5 Nordeste 16 Norte 0 1002.5 -- 27
2020-08-30 13:00:00 24.3 7 Nordeste 17 Este 0 1003.2 -- 31
2020-08-30 12:00:00 24.4 5 Sudeste 16 Este 0 1003.2 -- 32
2020-08-30 11:00:00 22.5 5 Nordeste 10 Este 0 1002.8 -- 37
2020-08-30 10:00:00 19.6 4 Oeste 12 Oeste 0 1002.9 -- 49
2020-08-30 09:00:00 16.4 5 Oeste 11 Sudoeste 0 1002.4 -- 67
2020-08-30 08:00:00 14.2 4 Oeste 12 Oeste 0 1001.9 -- 75
2020-08-30 07:00:00 15.2 6 Oeste 12 Sudoeste 0 1001 -- 77
2020-08-30 06:00:00 15.4 6 Oeste 15 Oeste 0 1000.7 -- 85
2020-08-30 05:00:00 16.5 6 Oeste 13 Sudoeste 0 1000.6 -- 84
2020-08-30 04:00:00 16.9 8 Oeste 15 Oeste 0 1000.2 -- 87
2020-08-30 03:00:00 17.5 4 Sudoeste 14 Oeste 0 1000.1 -- 86
2020-08-30 02:00:00 17.9 5 Oeste 11 Oeste 0 999.7 -- 87
2020-08-30 01:00:00 19.2 8 Sudoeste 13 Oeste 0 999.2 -- 78
2020-08-30 00:00:00 19.5 8 Sudoeste 13 Oeste 0 998.6 -- 80
2020-08-29 23:00:00 20.4 4 Oeste 8 Sur 0 997.7 -- 77
2020-08-29 22:00:00 20.6 3 Oeste 10 Noroeste 0 996.7 -- 77
2020-08-29 21:00:00 21.9 0 Calma 10 Este 0 995.5 -- 63
2020-08-29 20:00:00 22.5 8 Nordeste 31 Nordeste 0 995.3 -- 63
2020-08-29 19:00:00 23.3 15 Nordeste 23 Nordeste 0 995 -- 56
2020-08-29 18:00:00 23.8 13 Nordeste 44 Este 0 994.1 -- 73
2020-08-29 17:00:00 24.7 30 Este 44 Este 0 993.1 -- 53
2020-08-29 16:00:00 27.3 26 Nordeste 45 Nordeste 0 993 -- 44
2020-08-29 15:00:00 28.1 21 Este 41 Nordeste 0 992.4 -- 43
2020-08-29 14:00:00 28.3 19 Nordeste 35 Este 0 992.6 -- 43
2020-08-29 13:00:00 28.1 14 Nordeste 24 Nordeste 0 993.2 -- 44
2020-08-29 12:00:00 27.3 7 Nordeste 22 Nordeste 0 993.7 -- 48
2020-08-29 11:00:00 25.9 12 Nordeste 21 Nordeste 0 994.1 -- 53
2020-08-29 10:00:00 24.7 6 Nordeste 11 Norte 0 993.9 -- 56
2020-08-29 09:00:00 23.5 2 Norte 4 Norte 0 993.8 -- 68
2020-08-29 08:00:00 22.5 0 Calma 10 Norte 0 993.2 -- 74
2020-08-29 07:00:00 22.8 6 Norte 18 Nordeste 0 992.8 -- 73
2020-08-29 06:00:00 23.5 14 Nordeste 24 Nordeste 0 992.5 -- 73
2020-08-29 05:00:00 23.5 5 Oeste 11 Oeste 0 992.5 -- 90
2020-08-29 04:00:00 23.3 6 Oeste 9 Oeste 0 992.5 -- 90
2020-08-29 03:00:00 23.8 3 Oeste 9 Oeste 0 992.4 -- 89
2020-08-29 02:00:00 24.4 4 Oeste 9 Sudoeste 0 992.6 -- 87
2020-08-29 01:00:00 25.2 5 Oeste 8 Oeste 0 993 -- 85
2020-08-29 00:00:00 25.7 0 Calma 5 Nordeste 0 993.1 -- 85
2020-08-28 23:00:00 25.7 3 Nordeste 10 Norte 0 993.2 -- 84
2020-08-28 22:00:00 26.5 8 Nordeste 23 Norte 0 992.7 -- 81
2020-08-28 21:00:00 28.6 9 Nordeste 24 Nordeste 0 991.8 -- 66
2020-08-28 20:00:00 30.2 9 Nordeste 23 Norte 0 991.5 -- 55
2020-08-28 19:00:00 31.1 14 Norte 25 Norte 0 991.5 -- 52
2020-08-28 18:00:00 35.3 5 Noroeste 18 Norte 0 990.9 -- 39
2020-08-28 17:00:00 32.7 11 Norte 25 Norte 0 991.8 -- 50
2020-08-28 16:00:00 34.9 16 Norte 27 Norte 0 992.8 -- 41
2020-08-28 15:00:00 36 12 Nordeste 23 Nordeste 0 993.9 -- 32
2020-08-28 14:00:00 33.7 8 Nordeste 18 Nordeste 0 995.2 -- 36
2020-08-28 13:00:00 31.4 5 Norte 13 Norte 0 996.6 -- 44
2020-08-28 12:00:00 29.5 3 Este 16 Este 0 997.8 -- 59
2020-08-28 11:00:00 27.3 3 Sur 16 Oeste 0 998.3 -- 69
2020-08-28 10:00:00 24.8 10 Oeste 16 Oeste 0 998.7 -- 71
2020-08-28 09:00:00 22.7 6 Oeste -- -- -- 999 -- 83
2020-08-28 08:00:00 21.8 6 Oeste 10 Oeste 0 999 -- 89
2020-08-28 07:00:00 21.7 6 Oeste 10 Oeste 0 999.1 -- 91
2020-08-28 06:00:00 22.2 7 Oeste 11 Sudoeste 0 999.2 -- 91
2020-08-28 05:00:00 22.9 5 Oeste 8 Oeste 0 999.4 -- 90
2020-08-28 04:00:00 23.7 5 Oeste 9 Oeste 0 1000 -- 88
2020-08-28 03:00:00 24.4 4 Oeste 9 Sudoeste 0 1000.9 -- 90
2020-08-28 02:00:00 24.9 4 Oeste 8 Oeste 0 1001.8 -- 90
2020-08-28 01:00:00 25.2 2 Noroeste 4 Noroeste 0 1002.3 -- 90
2020-08-28 00:00:00 25.6 0 Calma 6 Nordeste 0 1002.8 -- 88
2020-08-27 23:00:00 26 3 Nordeste 9 Nordeste 0 1003 -- 88
2020-08-27 22:00:00 26.8 4 Nordeste 19 Nordeste 0 1002.7 -- 84
2020-08-27 21:00:00 27.6 10 Nordeste 23 Norte 0 1002.4 -- 80
2020-08-27 20:00:00 29.7 13 Norte 25 Norte 0 1002.1 -- 64
2020-08-27 19:00:00 31.4 15 Norte 25 Nordeste 0 1002 -- 54
2020-08-27 18:00:00 34 15 Norte 32 Norte 0 1002.1 -- 48
2020-08-27 17:00:00 34.8 20 Norte 32 Norte 0 1002.3 -- 43
2020-08-27 16:00:00 35.4 15 Norte 26 Norte 0 1003.1 -- 43
2020-08-27 15:00:00 36.1 10 Norte 23 Norte 0 1004.1 -- 36
2020-08-27 14:00:00 35 7 Este 19 Nordeste 0 1004.9 -- 31
2020-08-27 13:00:00 33.7 7 Nordeste 18 Nordeste 0 1005.7 -- 33
2020-08-27 12:00:00 31.4 4 Este 13 Nordeste 0 1006.4 -- 40
2020-08-27 11:00:00 29 4 Este 9 Nordeste 0 1006.7 -- 51
2020-08-27 10:00:00 26.4 2 Este 9 Sudoeste 0 1006.8 -- 68
2020-08-27 09:00:00 23.3 5 Oeste 13 Oeste 0 1006.8 -- 71
2020-08-27 08:00:00 22 8 Sudoeste 13 Sudoeste 0 1006.5 -- 81
2020-08-27 07:00:00 22.1 7 Sudoeste 13 Sudoeste 0 1006.3 -- 83
2020-08-27 06:00:00 22.6 6 Oeste 14 Sudoeste 0 1006.3 -- 84
2020-08-27 05:00:00 23.6 7 Sudoeste 11 Oeste 0 1006.7 -- 87
2020-08-27 04:00:00 24.2 4 Oeste 6 Oeste 0 1007.1 -- 89
2020-08-27 03:00:00 25.1 3 Sudoeste 7 Oeste 0 1007.3 -- 87
2020-08-27 02:00:00 25 4 Oeste 8 Oeste 0 1007.8 -- 87
2020-08-27 01:00:00 25.6 4 Oeste 6 Oeste 0 1007.9 -- 83
2020-08-27 00:00:00 26.1 0 Calma 7 Este 0 1008 -- 82
2020-08-26 23:00:00 26.6 4 Este 17 Nordeste 0 1007.7 -- 81
2020-08-26 22:00:00 27.2 9 Nordeste 19 Nordeste 0 1006.6 -- 78
2020-08-26 21:00:00 28.9 7 Nordeste 18 Norte 0 1005.4 -- 66
2020-08-26 20:00:00 31.4 9 Nordeste 21 Norte 0 1004.8 -- 57
2020-08-26 19:00:00 34.4 12 Norte 23 Norte 0 1004.7 -- 46
2020-08-26 18:00:00 36 13 Norte 27 Noroeste 0 1004.7 -- 41
2020-08-26 17:00:00 36.4 15 Norte 27 Norte 0 1005.1 -- 42
2020-08-26 16:00:00 36.5 15 Norte 28 Norte 0 1005.7 -- 42
2020-08-26 15:00:00 35.6 13 Norte 24 Nordeste 0 1006.2 -- 40
2020-08-26 14:00:00 34.5 9 Nordeste 20 Norte 0 1006.7 -- 40
2020-08-26 13:00:00 32.6 7 Nordeste 17 Nordeste 0 1007.6 -- 43
2020-08-26 12:00:00 31.1 7 Nordeste 13 Nordeste 0 1008 -- 50
2020-08-26 11:00:00 29.4 4 Nordeste 10 Este 0 1008 -- 54
2020-08-26 10:00:00 26.4 3 Noroeste 9 Oeste 0 1007.8 -- 62
2020-08-26 09:00:00 23.3 5 Oeste 12 Oeste 0 1007.5 -- 63
2020-08-26 08:00:00 21.6 6 Oeste 15 Oeste 0 1007.1 -- 79
2020-08-26 07:00:00 22.4 9 Sudoeste 14 Sudoeste 0 1006.5 -- 76
2020-08-26 06:00:00 22.7 5 Oeste 11 Oeste 0 1006.2 -- 84
2020-08-26 05:00:00 23.7 5 Oeste 9 Oeste 0 1006.3 -- 87
2020-08-26 04:00:00 24.6 5 Oeste 8 Oeste 0 1006.4 -- 85
2020-08-26 03:00:00 25.6 0 Calma 5 Oeste 0 1006.7 -- 81
2020-08-26 02:00:00 25.6 0 Calma 8 Nordeste 0 1006.8 -- 82
2020-08-26 01:00:00 25.9 3 Nordeste 10 Nordeste 0 1006.7 -- 81
2020-08-26 00:00:00 26.4 5 Nordeste 14 Nordeste 0 1006.4 -- 79
2020-08-25 23:00:00 27.2 7 Nordeste 19 Norte 0 1005.7 -- 71
2020-08-25 22:00:00 28.3 8 Nordeste 19 Nordeste 0 1004.8 -- 66
2020-08-25 21:00:00 30.4 12 Nordeste 23 Norte 0 1003.3 -- 56
2020-08-25 20:00:00 34 14 Norte 33 Noroeste 0 1002.1 -- 42
2020-08-25 19:00:00 39.3 14 Sudeste 30 Sudeste 0 1001.5 -- 23
2020-08-25 18:00:00 40.3 10 Nordeste 23 Norte 0 1001.4 -- 18
2020-08-25 17:00:00 39.4 16 Norte 25 Nordeste 0 1001.6 -- 27
2020-08-25 16:00:00 39.7 11 Norte 23 Norte 0 1002.3 -- 23
2020-08-25 15:00:00 38.4 13 Norte 23 Noroeste 0 1003 -- 21
2020-08-25 14:00:00 36.8 7 Sudeste 21 Sudeste 0 1003.7 -- 25
2020-08-25 13:00:00 34.5 6 Este 17 Este 0 1004.4 -- 31
2020-08-25 12:00:00 32 6 Este 16 Este 0 1005.1 -- 38
2020-08-25 11:00:00 30 9 Sudeste 17 Sudeste 0 1005.1 -- 47
2020-08-25 10:00:00 27.3 4 Nordeste 12 Oeste 0 1005.3 -- 59
2020-08-25 09:00:00 24.2 6 Sudoeste 13 Sudoeste 0 1005.4 -- 73
2020-08-25 08:00:00 22.1 7 Oeste 13 Oeste 0 1005 -- 84
2020-08-25 07:00:00 22.8 6 Oeste 14 Oeste 0 1004.7 -- 82
2020-08-25 06:00:00 24.2 8 Sudoeste 14 Oeste 0 1004.9 -- 76
2020-08-25 05:00:00 24.5 4 Oeste 8 Oeste 0 1005 -- 83
2020-08-25 04:00:00 25.4 0 Calma 8 Nordeste 0 1005.1 -- 80
2020-08-25 03:00:00 25.4 4 Noroeste 7 Noroeste 0 1005.3 -- 83
2020-08-25 02:00:00 25.3 4 Oeste 8 Sudoeste 0 1005.5 -- 82
2020-08-25 01:00:00 25.8 5 Oeste 15 Noroeste 0 1005.3 -- 80
2020-08-25 00:00:00 26.2 7 Oeste 15 Noroeste 0 1005.3 -- 78
2020-08-24 23:00:00 27 5 Oeste 12 Oeste 0 1004.8 -- 71
2020-08-24 22:00:00 27.7 5 Norte 24 Noroeste 0 1004 -- 67
2020-08-24 21:00:00 30.2 7 Norte 16 Nordeste 0 1002.8 -- 50
2020-08-24 20:00:00 32.5 9 Nordeste 24 Norte 0 1002.6 -- 42
2020-08-24 19:00:00 33.6 12 Nordeste 29 Norte 0 1002.9 -- 39
2020-08-24 18:00:00 34.2 17 Nordeste 30 Nordeste 0 1003.2 -- 39
2020-08-24 17:00:00 34.5 14 Nordeste 30 Este 0 1003.5 -- 37
2020-08-24 16:00:00 35.1 9 Nordeste 32 Nordeste 0 1004.2 -- 35
2020-08-24 15:00:00 33 19 Norte 29 Norte 0 1004.8 -- 44
2020-08-24 14:00:00 33.3 6 Noroeste 16 Este 0 1005.1 -- 37
2020-08-24 13:00:00 33.2 6 Nordeste 17 Nordeste 0 1006.1 -- 39
2020-08-24 12:00:00 31.1 8 Nordeste 16 Nordeste 0 1006.8 -- 48
2020-08-24 11:00:00 29.4 6 Nordeste 12 Nordeste 0 1007 -- 62
2020-08-24 10:00:00 27.1 4 Nordeste 9 Este 0 1006.9 -- 78
2020-08-24 09:00:00 25.3 3 Este 6 Nordeste 0 1006.6 -- 88
2020-08-24 08:00:00 23.8 0 Calma 5 Nordeste 0 1006.3 -- 93
2020-08-24 07:00:00 24 3 Sudeste 7 Este 0 1006 -- 92
2020-08-24 06:00:00 24.4 3 Este 9 Norte 0 1005.9 -- 90
2020-08-24 05:00:00 24.9 7 Norte 12 Norte 0 1006 -- 90
2020-08-24 04:00:00 24.9 6 Norte 11 Norte 0 1006.2 -- 90
2020-08-24 03:00:00 25.2 3 Norte 9 Noroeste 0 1006.3 -- 88
2020-08-24 02:00:00 26 4 Oeste 10 Oeste 0 1006.5 -- 85
2020-08-24 01:00:00 26.5 5 Oeste 9 Sudoeste 0 1006.8 -- 82
2020-08-24 00:00:00 26.9 6 Noroeste 10 Norte 0 1006.7 -- 77
2020-08-23 23:00:00 27.5 3 Norte 8 Norte 0 1006.7 -- 72
2020-08-23 22:00:00 28 7 Nordeste 17 Norte 0 1006.3 -- 69
2020-08-23 21:00:00 28.7 11 Norte 21 Norte 0 1005.8 -- 66
2020-08-23 20:00:00 31.2 8 Este 23 Este 0 1005.4 -- 50
2020-08-23 19:00:00 31.7 7 Norte 32 Nordeste 0 1005.5 -- 50
2020-08-23 18:00:00 32.6 12 Norte 24 Norte 0 1006.1 -- 47
2020-08-23 17:00:00 32.5 12 Nordeste 32 Nordeste 0 1006.7 -- 48
2020-08-23 16:00:00 31.7 21 Nordeste 32 Nordeste 0 1007.4 -- 51
2020-08-23 15:00:00 32.3 18 Nordeste 36 Norte 0 1007.7 -- 51
2020-08-23 14:00:00 31.4 20 Norte 36 Norte 0 1008.2 -- 53
2020-08-23 13:00:00 31.9 13 Nordeste 23 Nordeste 0 1008.8 -- 52
2020-08-23 12:00:00 29.6 8 Nordeste 15 Nordeste 0 1009.3 -- 61
2020-08-23 11:00:00 29.9 7 Nordeste 17 Nordeste 0 1009.3 -- 62
2020-08-23 10:00:00 27.2 4 Noroeste 9 Noroeste 0 1009.3 -- 74
2020-08-23 09:00:00 25.2 5 Oeste 8 Oeste 0 1009.8 -- 79
2020-08-23 08:00:00 24.2 5 Oeste 10 Oeste 0 1009.3 -- 83
2020-08-23 07:00:00 23.9 6 Oeste 11 Oeste 0 1008.7 -- 84
2020-08-23 06:00:00 23.9 6 Oeste 11 Oeste 0 1008.6 -- 86
2020-08-23 05:00:00 24.3 5 Oeste 12 Oeste 0 1008.7 -- 85
2020-08-23 04:00:00 24.6 3 Oeste 8 Noroeste 0 1008.5 -- 86
2020-08-23 03:00:00 25.1 5 Noroeste 7 Noroeste 0 1008.4 -- 89
2020-08-23 02:00:00 25.7 5 Oeste 9 Oeste 0 1008.8 -- 87
2020-08-23 01:00:00 26.2 4 Oeste 8 Oeste 0 1009.1 -- 87
2020-08-23 00:00:00 26.3 4 Noroeste 8 Noroeste 0 1009.3 -- 86
2020-08-22 23:00:00 26.7 3 Noroeste 16 Norte 0 1009.1 -- 80
2020-08-22 22:00:00 27.5 9 Norte 16 Norte 0 1008.4 -- 71
2020-08-22 21:00:00 29 9 Norte 18 Norte 0 1007.5 -- 59
2020-08-22 20:00:00 30.7 11 Nordeste 26 Norte 0 1007 -- 53
2020-08-22 19:00:00 32.5 17 Nordeste 29 Nordeste 0 1006.7 -- 48
2020-08-22 18:00:00 33.8 18 Nordeste 31 Este 0 1006.7 -- 39
2020-08-22 17:00:00 34.5 15 Nordeste 27 Nordeste 0 1007.1 -- 39
2020-08-22 16:00:00 34.6 15 Nordeste 28 Nordeste 0 1007.8 -- 39
2020-08-22 15:00:00 34.7 11 Nordeste 27 Nordeste 0 1008.2 -- 38
2020-08-22 14:00:00 33.4 10 Nordeste 37 Nordeste 0 1008.7 -- 44
2020-08-22 13:00:00 32.3 8 Nordeste 24 Nordeste 0 1009.3 -- 49
2020-08-22 12:00:00 30.5 8 Nordeste 16 Norte 0 1009.9 -- 58
2020-08-22 11:00:00 28.3 4 Norte 12 Sudoeste 0 1009.6 -- 70
2020-08-22 10:00:00 24.7 5 Sudoeste 11 Oeste 0 1009.1 -- 87
2020-08-22 09:00:00 22.3 8 Sudoeste 13 Sudoeste 0 1008.4 -- 88
2020-08-22 08:00:00 20.3 5 Noroeste 9 Oeste 0 1007.4 -- 84
2020-08-22 07:00:00 21.3 5 Sudoeste 9 Oeste 0 1006.4 -- 83
2020-08-22 06:00:00 22.1 6 Oeste 10 Oeste 0 1005.6 -- 89
2020-08-22 05:00:00 23.2 6 Sudoeste 12 Oeste 0 1005.3 -- 89
2020-08-22 04:00:00 23.5 5 Oeste 10 Oeste 0 1005.1 -- 89
2020-08-22 03:00:00 24.3 5 Sudoeste 8 Oeste 0 1005.2 -- 89
2020-08-22 02:00:00 25.1 5 Oeste 6 Sudoeste 0 1005.3 -- 88
2020-08-22 01:00:00 26.1 0 Calma 7 Nordeste 0 1005.2 -- 89
2020-08-22 00:00:00 26.9 0 Calma 6 Este 0 1005 -- 86
2020-08-21 23:00:00 27.2 4 Este 16 Nordeste 0 1004.5 -- 81
2020-08-21 22:00:00 28.3 10 Nordeste 17 Nordeste 0 1003.5 -- 72
2020-08-21 21:00:00 30 8 Nordeste 15 Nordeste 0 1002.3 -- 64
2020-08-21 20:00:00 33 8 Norte 16 Norte 0 1001.6 -- 52
2020-08-21 19:00:00 35.3 7 Norte 29 Norte 0 1001.5 -- 42
2020-08-21 18:00:00 36.4 19 Norte 28 Noroeste 0 1001.2 -- 37
2020-08-21 17:00:00 38.2 15 Norte 28 Norte 0 1001.1 -- 33
2020-08-21 16:00:00 38.6 11 Nordeste 23 Norte 0 1001.6 -- 22
2020-08-21 15:00:00 37 10 Nordeste 21 Nordeste 0 1002.3 -- 22
2020-08-21 14:00:00 34.9 7 Norte 19 Nordeste 0 1002.8 -- 29
2020-08-21 13:00:00 33.1 7 Nordeste 18 Este 0 1003.4 -- 36
2020-08-21 12:00:00 31.5 5 Este 11 Este 0 1003.6 -- 46
2020-08-21 11:00:00 29.3 4 Nordeste 10 Nordeste 0 1003.7 -- 55
2020-08-21 10:00:00 26.8 3 Oeste 13 Oeste 0 1003.3 -- 66
2020-08-21 09:00:00 24.1 7 Sudoeste 15 Oeste 0 1002.7 -- 77
2020-08-21 08:00:00 23 7 Oeste 14 Oeste 0 1002.2 -- 83
2020-08-21 07:00:00 23.8 8 Oeste 13 Oeste 0 1001.8 -- 81
2020-08-21 06:00:00 24.6 4 Oeste 8 Oeste 0 1001.5 -- 84
2020-08-21 05:00:00 25.1 0 Calma 4 Norte 0 1001 -- 86
2020-08-21 04:00:00 25.7 3 Oeste 10 Oeste 0 1001.2 -- 84
2020-08-21 03:00:00 25.8 5 Noroeste 11 Oeste 0 1001.4 -- 85
2020-08-21 02:00:00 25.7 5 Oeste 9 Oeste 0 1001.2 -- 86
2020-08-21 01:00:00 25.8 3 Noroeste 11 Oeste 0 1001.2 -- 85
2020-08-21 00:00:00 25.6 5 Oeste 10 Oeste 0 1001 -- 85